Time;durP1;ratioP1;P1;durP2;ratioP2;P2;SDS_P1;SDS_P2;PMS_P1;PMS_P2;Temp;Humidity;BMP_temperature;BMP_pressure;BME280_temperature;BME280_humidity;BME280_pressure;Samples;Min_cycle;Max_cycle;Signal;HPM_P1;HPM_P2
2023/03/05 00:03:48;;;;;;;;;;;17.60;44.80;;;;;;10373356;28;1902;-77
2023/03/05 00:08:44;;;;;;;;;;;17.50;44.80;;;;;;10374053;28;975;-77
2023/03/05 00:13:39;;;;;;;;;;;17.60;44.80;;;;;;10373013;28;873;-77
2023/03/05 00:18:34;;;;;;;;;;;17.60;44.80;;;;;;10372874;28;793;-77
2023/03/05 00:23:30;;;;;;;;;;;17.60;44.80;;;;;;10372586;28;1960;-77
2023/03/05 00:28:25;;;;;;;;;;;17.60;44.80;;;;;;10373056;28;916;-77
2023/03/05 00:33:21;;;;;;;;;;;17.50;45.30;;;;;;10372927;28;856;-77
2023/03/05 00:38:16;;;;;;;;;;;17.60;44.80;;;;;;10372131;28;830;-77
2023/03/05 00:43:11;;;;;;;;;;;17.50;44.70;;;;;;10371032;28;1902;-77
2023/03/05 00:48:07;;;;;;;;;;;17.50;44.70;;;;;;10372265;28;821;-77
2023/03/05 00:53:02;;;;;;;;;;;17.50;44.80;;;;;;10370829;28;877;-77
2023/03/05 00:57:57;;;;;;;;;;;17.50;44.80;;;;;;10371296;28;995;-77
2023/03/05 01:02:53;;;;;;;;;;;17.50;44.70;;;;;;10371062;28;1894;-77
2023/03/05 01:07:48;;;;;;;;;;;17.50;44.80;;;;;;10371536;28;862;-77
2023/03/05 01:12:43;;;;;;;;;;;17.50;44.80;;;;;;10370681;28;775;-77
2023/03/05 01:17:39;;;;;;;;;;;17.50;44.80;;;;;;10371119;28;886;-77
2023/03/05 01:22:34;;;;;;;;;;;17.50;44.80;;;;;;10370296;28;1902;-77
2023/03/05 01:27:30;;;;;;;;;;;17.50;44.70;;;;;;10370171;28;815;-77
2023/03/05 01:32:25;;;;;;;;;;;17.50;44.80;;;;;;10369964;28;878;-77
2023/03/05 01:37:20;;;;;;;;;;;17.50;44.70;;;;;;10370368;28;831;-77
2023/03/05 01:42:18;;;;;;;;;;;17.50;44.80;;;;;;10369609;28;1905;-77
2023/03/05 01:47:13;;;;;;;;;;;17.50;44.70;;;;;;10369777;28;851;-77
2023/03/05 01:52:08;;;;;;;;;;;17.50;44.70;;;;;;10369785;28;818;-77
2023/03/05 01:57:04;;;;;;;;;;;17.50;44.70;;;;;;10369009;28;988;-77
2023/03/05 02:01:59;;;;;;;;;;;17.50;44.80;;;;;;10368745;28;1967;-77
2023/03/05 02:06:55;;;;;;;;;;;17.50;44.70;;;;;;10368771;28;807;-77
2023/03/05 02:11:50;;;;;;;;;;;17.50;44.60;;;;;;10369876;28;973;-77
2023/03/05 02:16:45;;;;;;;;;;;17.50;44.70;;;;;;10368892;28;925;-77
2023/03/05 02:21:41;;;;;;;;;;;17.50;44.70;;;;;;10367984;28;1906;-77
2023/03/05 02:26:36;;;;;;;;;;;17.50;44.60;;;;;;10368039;28;927;-77
2023/03/05 02:31:32;;;;;;;;;;;17.50;44.70;;;;;;10367098;28;843;-77
2023/03/05 02:36:27;;;;;;;;;;;17.40;44.70;;;;;;10368097;28;829;-77
2023/03/05 02:41:23;;;;;;;;;;;17.50;45.30;;;;;;10366768;28;1979;-77
2023/03/05 02:46:18;;;;;;;;;;;17.50;44.70;;;;;;10367790;28;904;-77
2023/03/05 02:51:14;;;;;;;;;;;17.40;44.60;;;;;;10367075;28;854;-77
2023/03/05 02:56:09;;;;;;;;;;;17.50;44.70;;;;;;10366960;28;767;-77
2023/03/05 03:01:04;;;;;;;;;;;17.50;44.60;;;;;;10367291;28;1967;-77
2023/03/05 03:06:01;;;;;;;;;;;17.50;44.70;;;;;;10365912;28;1092;-77
2023/03/05 03:10:56;;;;;;;;;;;17.40;44.70;;;;;;10366494;28;883;-77
2023/03/05 03:15:52;;;;;;;;;;;17.40;44.70;;;;;;10365535;28;925;-77
2023/03/05 03:20:48;;;;;;;;;;;17.30;44.80;;;;;;10366820;28;1991;-77
2023/03/05 03:25:43;;;;;;;;;;;17.30;44.80;;;;;;10366156;28;940;-77
2023/03/05 03:30:39;;;;;;;;;;;17.30;44.90;;;;;;10366150;28;898;-77
2023/03/05 03:35:34;;;;;;;;;;;17.30;44.90;;;;;;10366063;28;791;-77
2023/03/05 03:40:29;;;;;;;;;;;17.30;44.80;;;;;;10365585;28;1155;-77
2023/03/05 03:45:25;;;;;;;;;;;17.30;44.80;;;;;;10365527;28;1902;-77
2023/03/05 03:50:20;;;;;;;;;;;17.30;44.80;;;;;;10365790;28;934;-77
2023/03/05 03:55:15;;;;;;;;;;;17.30;44.90;;;;;;10366345;28;838;-77
2023/03/05 04:00:11;;;;;;;;;;;17.30;44.70;;;;;;10366812;28;948;-77
2023/03/05 04:05:06;;;;;;;;;;;17.40;44.60;;;;;;10365429;28;1968;-77
2023/03/05 04:10:01;;;;;;;;;;;17.50;44.60;;;;;;10364829;28;846;-77
2023/03/05 04:14:57;;;;;;;;;;;17.50;44.60;;;;;;10365983;28;867;-77
2023/03/05 04:19:52;;;;;;;;;;;17.40;44.60;;;;;;10365190;28;917;-77
2023/03/05 04:24:48;;;;;;;;;;;17.40;44.60;;;;;;10365681;28;1963;-77
2023/03/05 04:29:43;;;;;;;;;;;17.40;44.70;;;;;;10369408;28;986;-77
2023/03/05 04:34:38;;;;;;;;;;;17.40;44.80;;;;;;10372367;28;826;-77
2023/03/05 04:39:34;;;;;;;;;;;17.30;44.80;;;;;;10372385;28;1225;-77
2023/03/05 04:44:29;;;;;;;;;;;17.30;44.80;;;;;;10371996;28;1965;-77
2023/03/05 04:49:24;;;;;;;;;;;17.30;44.70;;;;;;10371729;28;827;-77
2023/03/05 04:54:21;;;;;;;;;;;17.30;44.80;;;;;;10371490;28;929;-77
2023/03/05 04:59:16;;;;;;;;;;;17.40;44.70;;;;;;10372118;28;927;-77
2023/03/05 05:04:11;;;;;;;;;;;17.30;44.70;;;;;;10371043;28;1963;-77
2023/03/05 05:09:07;;;;;;;;;;;17.40;44.70;;;;;;10371377;28;1054;-77
2023/03/05 05:14:03;;;;;;;;;;;17.40;44.70;;;;;;10370777;28;942;-77
2023/03/05 05:18:58;;;;;;;;;;;17.40;44.60;;;;;;10371164;28;956;-77
2023/03/05 05:23:53;;;;;;;;;;;17.40;44.50;;;;;;10370304;28;1901;-77
2023/03/05 05:28:49;;;;;;;;;;;17.40;44.50;;;;;;10370262;28;803;-77
2023/03/05 05:33:44;;;;;;;;;;;17.40;44.50;;;;;;10370040;28;811;-77
2023/03/05 05:38:39;;;;;;;;;;;17.50;44.50;;;;;;10369372;28;763;-77
2023/03/05 05:43:35;;;;;;;;;;;17.50;44.50;;;;;;10369942;28;1910;-77
2023/03/05 05:48:30;;;;;;;;;;;17.50;44.50;;;;;;10370105;28;819;-77
2023/03/05 05:53:26;;;;;;;;;;;17.50;44.50;;;;;;10369252;28;900;-77
2023/03/05 05:58:21;;;;;;;;;;;17.50;44.40;;;;;;10368968;28;951;-77
2023/03/05 06:03:16;;;;;;;;;;;17.50;44.40;;;;;;10368732;28;1967;-77
2023/03/05 06:08:12;;;;;;;;;;;17.50;44.40;;;;;;10369257;28;878;-77
2023/03/05 06:13:07;;;;;;;;;;;17.50;44.40;;;;;;10369063;28;879;-78
2023/03/05 06:18:02;;;;;;;;;;;17.50;44.40;;;;;;10367970;28;1055;-82
2023/03/05 06:22:58;;;;;;;;;;;17.50;44.40;;;;;;10367385;28;1902;-82
2023/03/05 06:27:53;;;;;;;;;;;17.50;44.40;;;;;;10368478;28;851;-84
2023/03/05 06:32:48;;;;;;;;;;;17.60;44.50;;;;;;10368321;28;918;-82
2023/03/05 06:37:44;;;;;;;;;;;17.50;44.40;;;;;;10367534;28;798;-80
2023/03/05 06:42:39;;;;;;;;;;;17.50;44.40;;;;;;10367275;28;1981;-82
2023/03/05 06:47:35;;;;;;;;;;;17.50;44.50;;;;;;10366986;28;806;-75
2023/03/05 06:52:30;;;;;;;;;;;17.60;44.40;;;;;;10367655;28;778;-82
2023/03/05 06:57:25;;;;;;;;;;;17.50;44.40;;;;;;10366919;28;795;-81
2023/03/05 07:02:21;;;;;;;;;;;17.60;44.50;;;;;;10367602;28;1902;-83
2023/03/05 07:07:16;;;;;;;;;;;17.50;44.50;;;;;;10367258;28;830;-83
2023/03/05 07:12:12;;;;;;;;;;;17.50;44.50;;;;;;10366568;28;866;-83
2023/03/05 07:17:07;;;;;;;;;;;17.50;44.50;;;;;;10366445;28;896;-83
2023/03/05 07:22:02;;;;;;;;;;;17.50;44.40;;;;;;10366255;28;1901;-82
2023/03/05 07:26:58;;;;;;;;;;;17.50;44.40;;;;;;10366261;28;925;-86
2023/03/05 07:31:53;;;;;;;;;;;17.50;44.40;;;;;;10366158;28;821;-75
2023/03/05 07:36:48;;;;;;;;;;;17.60;44.50;;;;;;10366712;28;893;-83
2023/03/05 07:41:44;;;;;;;;;;;17.60;44.40;;;;;;10366116;28;1976;-81
2023/03/05 07:46:39;;;;;;;;;;;17.60;44.40;;;;;;10365906;28;879;-81
2023/03/05 07:51:35;;;;;;;;;;;17.50;44.50;;;;;;10366050;28;862;-81
2023/03/05 07:56:30;;;;;;;;;;;17.50;44.40;;;;;;10366263;28;925;-88
2023/03/05 08:01:26;;;;;;;;;;;17.60;44.40;;;;;;10365475;28;1899;-81
2023/03/05 08:06:21;;;;;;;;;;;17.50;44.50;;;;;;10373415;28;845;-82
2023/03/05 08:11:17;;;;;;;;;;;17.60;44.40;;;;;;10373556;28;891;-82
2023/03/05 08:16:12;;;;;;;;;;;17.60;44.50;;;;;;10373283;28;855;-81
2023/03/05 08:21:07;;;;;;;;;;;17.60;44.60;;;;;;10372853;28;1902;-81
2023/03/05 08:26:03;;;;;;;;;;;17.60;44.50;;;;;;10372697;28;819;-80
2023/03/05 08:30:58;;;;;;;;;;;17.60;44.40;;;;;;10372700;28;872;-79
2023/03/05 08:35:53;;;;;;;;;;;17.50;44.40;;;;;;10372321;28;834;-79
2023/03/05 08:40:49;;;;;;;;;;;17.60;44.50;;;;;;10371940;28;1969;-85
2023/03/05 08:45:46;;;;;;;;;;;17.60;44.40;;;;;;10371366;28;1194;-79
2023/03/05 08:50:41;;;;;;;;;;;17.50;44.40;;;;;;10372374;28;885;-80
2023/03/05 08:55:37;;;;;;;;;;;17.50;44.40;;;;;;10371557;28;793;-79
2023/03/05 09:00:32;;;;;;;;;;;17.60;44.40;;;;;;10371968;28;838;-79
2023/03/05 09:05:27;;;;;;;;;;;17.50;44.40;;;;;;10371179;28;1972;-79
2023/03/05 09:10:23;;;;;;;;;;;17.60;44.40;;;;;;10371001;28;800;-80
2023/03/05 09:15:18;;;;;;;;;;;17.50;44.50;;;;;;10369616;28;1011;-80
2023/03/05 09:20:14;;;;;;;;;;;17.50;44.40;;;;;;10370638;28;858;-81
2023/03/05 09:25:09;;;;;;;;;;;17.50;44.40;;;;;;10370383;28;1914;-84
2023/03/05 09:30:05;;;;;;;;;;;17.50;44.40;;;;;;10370164;28;848;-83
2023/03/05 09:35:00;;;;;;;;;;;17.50;44.50;;;;;;10370028;28;814;-80
2023/03/05 09:39:55;;;;;;;;;;;17.50;44.40;;;;;;10369885;28;1345;-81
2023/03/05 09:44:51;;;;;;;;;;;17.50;44.40;;;;;;10369564;28;1918;-81
2023/03/05 09:49:46;;;;;;;;;;;17.50;44.40;;;;;;10369933;28;842;-84
2023/03/05 09:54:41;;;;;;;;;;;17.50;44.50;;;;;;10369034;28;796;-81
2023/03/05 09:59:37;;;;;;;;;;;17.50;44.40;;;;;;10368890;28;1027;-85
2023/03/05 10:04:32;;;;;;;;;;;17.50;44.50;;;;;;10369333;28;1902;-82
2023/03/05 10:09:28;;;;;;;;;;;17.50;44.40;;;;;;10367786;28;1048;-80
2023/03/05 10:14:23;;;;;;;;;;;17.50;44.40;;;;;;10368122;28;895;-81
2023/03/05 10:19:18;;;;;;;;;;;17.50;44.50;;;;;;10367452;28;926;-80
2023/03/05 10:24:14;;;;;;;;;;;17.60;44.50;;;;;;10367722;28;1996;-79
2023/03/05 10:29:09;;;;;;;;;;;17.60;44.50;;;;;;10367384;28;929;-80
2023/03/05 10:34:04;;;;;;;;;;;17.60;44.40;;;;;;10368067;28;814;-79
2023/03/05 10:39:00;;;;;;;;;;;17.60;44.40;;;;;;10367640;28;1133;-79
2023/03/05 10:43:55;;;;;;;;;;;17.50;44.40;;;;;;10367626;28;1982;-80
2023/03/05 10:48:51;;;;;;;;;;;17.50;44.30;;;;;;10367510;28;866;-80
2023/03/05 10:53:46;;;;;;;;;;;17.50;44.50;;;;;;10366820;28;890;-80
2023/03/05 10:58:42;;;;;;;;;;;17.50;44.40;;;;;;10366713;28;834;-79
2023/03/05 11:03:37;;;;;;;;;;;17.50;44.40;;;;;;10366407;28;1906;-75
2023/03/05 11:08:32;;;;;;;;;;;17.50;44.30;;;;;;10367075;28;881;-78
2023/03/05 11:13:28;;;;;;;;;;;17.70;44.70;;;;;;10366067;28;1108;-80
2023/03/05 11:18:23;;;;;;;;;;;17.80;44.80;;;;;;10366496;28;810;-77
2023/03/05 11:23:19;;;;;;;;;;;17.90;44.90;;;;;;10366768;28;1898;-77
2023/03/05 11:28:14;;;;;;;;;;;17.80;45.00;;;;;;10365995;28;811;-76
2023/03/05 11:33:09;;;;;;;;;;;17.90;45.20;;;;;;10365956;28;928;-77
2023/03/05 11:38:05;;;;;;;;;;;17.90;45.20;;;;;;10367949;28;830;-77
2023/03/05 11:43:01;;;;;;;;;;;17.90;45.10;;;;;;10374023;28;1934;-76
2023/03/05 11:47:57;;;;;;;;;;;17.80;45.10;;;;;;10373311;28;1141;-76
2023/03/05 11:52:52;;;;;;;;;;;17.90;45.20;;;;;;10373756;28;883;-76
2023/03/05 11:57:48;;;;;;;;;;;17.90;45.10;;;;;;10372937;28;1012;-76
2023/03/05 12:02:43;;;;;;;;;;;17.90;45.20;;;;;;10373340;28;1967;-77
2023/03/05 12:07:38;;;;;;;;;;;17.90;45.00;;;;;;10373814;28;851;-77
2023/03/05 12:12:37;;;;;;;;;;;18.00;45.10;;;;;;10373057;28;916;-77
2023/03/05 12:17:32;;;;;;;;;;;18.00;45.10;;;;;;10373372;28;899;-77
2023/03/05 12:22:28;;;;;;;;;;;18.00;45.10;;;;;;10372068;28;1967;-83
2023/03/05 12:27:23;;;;;;;;;;;17.90;45.10;;;;;;10372451;28;779;-81
2023/03/05 12:32:18;;;;;;;;;;;17.80;45.20;;;;;;10372738;28;894;-77
2023/03/05 12:37:14;;;;;;;;;;;17.80;44.90;;;;;;10371606;28;1071;-78
2023/03/05 12:42:09;;;;;;;;;;;17.90;44.80;;;;;;10371615;28;2000;-78
2023/03/05 12:47:04;;;;;;;;;;;17.90;44.90;;;;;;10372269;28;984;-77
2023/03/05 12:52:00;;;;;;;;;;;17.90;44.80;;;;;;10370649;28;956;-76
2023/03/05 12:56:55;;;;;;;;;;;18.00;44.90;;;;;;10370781;28;846;-78
2023/03/05 13:01:51;;;;;;;;;;;18.00;44.90;;;;;;10371113;28;1910;-77
2023/03/05 13:06:46;;;;;;;;;;;18.00;44.90;;;;;;10370373;28;982;-77
2023/03/05 13:11:41;;;;;;;;;;;18.00;44.90;;;;;;10370726;28;904;-79
2023/03/05 13:16:37;;;;;;;;;;;18.00;45.10;;;;;;10370605;28;976;-77
2023/03/05 13:21:34;;;;;;;;;;;18.00;45.00;;;;;;10370245;28;1972;-78
2023/03/05 13:26:29;;;;;;;;;;;18.00;45.00;;;;;;10370811;28;862;-77
2023/03/05 13:31:24;;;;;;;;;;;18.00;45.00;;;;;;10370173;28;972;-78
2023/03/05 13:36:20;;;;;;;;;;;18.00;45.10;;;;;;10370031;28;917;-76
2023/03/05 13:41:15;;;;;;;;;;;18.00;44.80;;;;;;10369310;28;1913;-76
2023/03/05 13:46:10;;;;;;;;;;;18.00;45.10;;;;;;10370232;28;879;-76
2023/03/05 13:51:08;;;;;;;;;;;18.00;45.30;;;;;;10369950;28;896;-77
2023/03/05 13:56:03;;;;;;;;;;;18.00;45.40;;;;;;10369224;28;892;-76
2023/03/05 14:00:59;;;;;;;;;;;18.00;45.60;;;;;;10368368;28;1905;-76
2023/03/05 14:05:54;;;;;;;;;;;18.10;45.70;;;;;;10368873;28;932;-76
2023/03/05 14:10:49;;;;;;;;;;;18.10;45.60;;;;;;10367907;28;934;-76
2023/03/05 14:15:45;;;;;;;;;;;18.00;45.60;;;;;;10368452;28;945;-76
2023/03/05 14:20:40;;;;;;;;;;;18.00;45.30;;;;;;10367658;28;909;-76
2023/03/05 14:25:38;;;;;;;;;;;18.10;45.20;;;;;;10368600;28;1969;-76
2023/03/05 14:30:34;;;;;;;;;;;18.10;45.10;;;;;;10367869;28;892;-76
2023/03/05 14:35:30;;;;;;;;;;;18.20;45.10;;;;;;10367673;28;1012;-76
2023/03/05 14:40:25;;;;;;;;;;;18.20;45.00;;;;;;10367555;28;1375;-76
2023/03/05 14:45:21;;;;;;;;;;;18.20;45.00;;;;;;10367410;28;1894;-76
2023/03/05 14:50:16;;;;;;;;;;;18.20;45.00;;;;;;10367322;28;932;-76
2023/03/05 14:55:11;;;;;;;;;;;18.20;45.00;;;;;;10367125;28;907;-76
2023/03/05 15:00:07;;;;;;;;;;;18.10;45.00;;;;;;10367596;28;870;-76
2023/03/05 15:05:02;;;;;;;;;;;18.20;45.20;;;;;;10367647;28;1898;-76
2023/03/05 15:09:58;;;;;;;;;;;18.20;45.10;;;;;;10366659;28;800;-76
2023/03/05 15:14:54;;;;;;;;;;;18.20;44.90;;;;;;10366685;28;826;-76
2023/03/05 15:19:49;;;;;;;;;;;18.30;44.80;;;;;;10365858;28;933;-76
2023/03/05 15:24:45;;;;;;;;;;;18.30;45.00;;;;;;10367268;28;1961;-76
2023/03/05 15:29:40;;;;;;;;;;;18.20;44.90;;;;;;10367005;28;856;-76
2023/03/05 15:34:36;;;;;;;;;;;18.20;44.80;;;;;;10366149;28;773;-76
2023/03/05 15:39:31;;;;;;;;;;;18.20;44.60;;;;;;10366764;28;1259;-76
2023/03/05 15:44:26;;;;;;;;;;;18.20;44.60;;;;;;10365432;28;1906;-76
2023/03/05 15:49:23;;;;;;;;;;;18.10;44.60;;;;;;10365838;28;775;-76
2023/03/05 15:54:18;;;;;;;;;;;18.20;44.60;;;;;;10365718;28;955;-76
2023/03/05 15:59:13;;;;;;;;;;;18.10;44.70;;;;;;10366917;28;917;-77
2023/03/05 16:04:09;;;;;;;;;;;18.10;44.70;;;;;;10366158;28;1906;-76
2023/03/05 16:09:04;;;;;;;;;;;18.10;44.70;;;;;;10366085;28;913;-76
2023/03/05 16:14:00;;;;;;;;;;;18.10;44.70;;;;;;10366576;28;960;-76
2023/03/05 16:18:56;;;;;;;;;;;18.10;44.70;;;;;;10365235;28;987;-76
2023/03/05 16:23:51;;;;;;;;;;;18.10;44.60;;;;;;10366096;28;1963;-76
2023/03/05 16:28:47;;;;;;;;;;;18.10;44.70;;;;;;10372694;28;855;-76
2023/03/05 16:33:42;;;;;;;;;;;18.10;44.80;;;;;;10373667;28;806;-76
2023/03/05 16:38:37;;;;;;;;;;;18.10;44.70;;;;;;10372342;28;759;-76
2023/03/05 16:43:33;;;;;;;;;;;18.00;44.80;;;;;;10372964;28;1894;-76
2023/03/05 16:48:28;;;;;;;;;;;18.10;44.80;;;;;;10372072;28;878;-76
2023/03/05 16:53:24;;;;;;;;;;;18.10;44.70;;;;;;10372377;28;864;-77
2023/03/05 16:58:19;;;;;;;;;;;18.00;44.70;;;;;;10371580;28;922;-76
2023/03/05 17:03:14;;;;;;;;;;;18.00;44.70;;;;;;10372249;28;1906;-76
2023/03/05 17:08:10;;;;;;;;;;;18.10;44.70;;;;;;10370580;28;1021;-76
2023/03/05 17:13:05;;;;;;;;;;;18.10;44.70;;;;;;10371716;28;943;-76
2023/03/05 17:18:01;;;;;;;;;;;18.00;44.60;;;;;;10370208;28;1185;-76
2023/03/05 17:22:57;;;;;;;;;;;18.00;44.50;;;;;;10370575;28;1894;-76
2023/03/05 17:27:52;;;;;;;;;;;18.00;44.70;;;;;;10370525;28;816;-76
2023/03/05 17:32:48;;;;;;;;;;;18.10;44.60;;;;;;10370240;28;802;-76
2023/03/05 17:37:43;;;;;;;;;;;18.10;44.60;;;;;;10368555;28;1107;-75
2023/03/05 17:42:39;;;;;;;;;;;18.10;44.60;;;;;;10370437;28;1965;-75
2023/03/05 17:47:34;;;;;;;;;;;18.10;44.60;;;;;;10369653;28;892;-75
2023/03/05 17:52:29;;;;;;;;;;;18.10;44.80;;;;;;10370074;28;826;-74
2023/03/05 17:57:25;;;;;;;;;;;18.10;44.90;;;;;;10369915;28;858;-76
2023/03/05 18:02:20;;;;;;;;;;;18.20;45.00;;;;;;10369624;28;1953;-75
2023/03/05 18:07:16;;;;;;;;;;;18.20;45.20;;;;;;10368581;28;1135;-76
2023/03/05 18:12:11;;;;;;;;;;;18.10;45.20;;;;;;10368080;28;838;-76
2023/03/05 18:17:06;;;;;;;;;;;18.10;45.00;;;;;;10368472;28;833;-76
2023/03/05 18:22:02;;;;;;;;;;;18.10;45.10;;;;;;10368835;28;1902;-76
2023/03/05 18:26:57;;;;;;;;;;;18.10;45.10;;;;;;10368321;28;787;-76
2023/03/05 18:31:52;;;;;;;;;;;18.20;45.00;;;;;;10368914;28;943;-76
2023/03/05 18:36:48;;;;;;;;;;;18.20;45.60;;;;;;10367237;28;897;-75
2023/03/05 18:41:43;;;;;;;;;;;18.20;45.00;;;;;;10367115;28;1979;-76
2023/03/05 18:46:39;;;;;;;;;;;18.20;45.10;;;;;;10367841;28;856;-75
2023/03/05 18:51:34;;;;;;;;;;;18.20;45.10;;;;;;10367859;28;931;-76
2023/03/05 18:56:30;;;;;;;;;;;18.20;45.10;;;;;;10367628;28;771;-77
2023/03/05 19:01:25;;;;;;;;;;;18.20;45.00;;;;;;10368117;28;1890;-77
2023/03/05 19:06:20;;;;;;;;;;;18.20;45.00;;;;;;10367652;28;773;-76
2023/03/05 19:11:16;;;;;;;;;;;18.20;45.00;;;;;;10367371;28;908;-76
2023/03/05 19:16:11;;;;;;;;;;;18.20;44.90;;;;;;10367082;28;785;-76
2023/03/05 19:21:07;;;;;;;;;;;18.20;45.00;;;;;;10366480;28;775;-76
2023/03/05 19:26:02;;;;;;;;;;;18.20;45.00;;;;;;10366934;28;853;-75
2023/03/05 19:30:57;;;;;;;;;;;18.20;45.00;;;;;;10366272;28;866;-77
2023/03/05 19:35:53;;;;;;;;;;;18.20;44.90;;;;;;10366949;28;896;-75
2023/03/05 19:40:48;;;;;;;;;;;18.20;44.90;;;;;;10366120;28;1306;-76
2023/03/05 19:45:43;;;;;;;;;;;18.20;44.80;;;;;;10365933;28;1913;-75
2023/03/05 19:50:39;;;;;;;;;;;18.20;44.80;;;;;;10365864;28;1004;-76
2023/03/05 19:55:34;;;;;;;;;;;18.20;44.70;;;;;;10365794;28;880;-75
2023/03/05 20:00:29;;;;;;;;;;;18.20;44.70;;;;;;10370832;28;906;-75
2023/03/05 20:05:25;;;;;;;;;;;18.20;44.70;;;;;;10373733;28;1963;-75
2023/03/05 20:10:21;;;;;;;;;;;18.20;44.70;;;;;;10373579;28;910;-83
2023/03/05 20:15:16;;;;;;;;;;;18.20;44.70;;;;;;10373385;28;956;-74
2023/03/05 20:20:12;;;;;;;;;;;18.00;44.70;;;;;;10373110;28;769;-74
2023/03/05 20:25:07;;;;;;;;;;;18.10;44.80;;;;;;10372303;28;1956;-74
2023/03/05 20:30:04;;;;;;;;;;;18.10;44.70;;;;;;10372772;28;813;-73
2023/03/05 20:34:59;;;;;;;;;;;18.10;44.80;;;;;;10372528;28;900;-74
2023/03/05 20:39:54;;;;;;;;;;;18.00;44.80;;;;;;10372528;28;1140;-74
2023/03/05 20:44:50;;;;;;;;;;;18.00;44.80;;;;;;10372703;28;1918;-73
2023/03/05 20:49:45;;;;;;;;;;;18.00;44.90;;;;;;10372619;28;775;-73
2023/03/05 20:54:40;;;;;;;;;;;18.00;44.90;;;;;;10371867;28;866;-73
2023/03/05 20:59:36;;;;;;;;;;;17.90;44.90;;;;;;10372213;28;858;-73
2023/03/05 21:04:31;;;;;;;;;;;17.90;44.90;;;;;;10371358;28;1947;-73
2023/03/05 21:09:27;;;;;;;;;;;17.90;44.80;;;;;;10371184;28;889;-73
2023/03/05 21:14:23;;;;;;;;;;;17.90;44.80;;;;;;10371902;28;844;-73
2023/03/05 21:19:18;;;;;;;;;;;17.90;44.80;;;;;;10370227;28;917;-73
2023/03/05 21:24:15;;;;;;;;;;;17.90;45.00;;;;;;10370391;28;1898;-74
2023/03/05 21:29:11;;;;;;;;;;;17.90;44.90;;;;;;10370440;28;888;-73
2023/03/05 21:34:06;;;;;;;;;;;17.80;44.80;;;;;;10370275;28;827;-73
2023/03/05 21:39:01;;;;;;;;;;;17.80;44.80;;;;;;10370787;28;1092;-75
2023/03/05 21:44:02;;;;;;;;;;;17.70;44.80;;;;;;10369410;28;1914;-75
2023/03/05 21:48:58;;;;;;;;;;;17.70;44.90;;;;;;10369721;28;787;-75
2023/03/05 21:53:53;;;;;;;;;;;17.70;44.90;;;;;;10369477;28;803;-74
2023/03/05 21:58:48;;;;;;;;;;;17.70;44.90;;;;;;10369898;28;846;-74
2023/03/05 22:03:44;;;;;;;;;;;17.70;44.90;;;;;;10369596;28;1975;-74
2023/03/05 22:08:39;;;;;;;;;;;17.70;44.90;;;;;;10370271;28;890;-74
2023/03/05 22:13:34;;;;;;;;;;;17.70;44.90;;;;;;10368704;28;847;-74
2023/03/05 22:18:30;;;;;;;;;;;17.70;45.00;;;;;;10369450;28;920;-74
2023/03/05 22:23:26;;;;;;;;;;;17.60;45.00;;;;;;10368631;28;1901;-74
2023/03/05 22:28:22;;;;;;;;;;;17.70;44.90;;;;;;10368134;28;908;-74
2023/03/05 22:33:17;;;;;;;;;;;17.70;45.00;;;;;;10368157;28;807;-74
2023/03/05 22:38:12;;;;;;;;;;;17.60;45.00;;;;;;10367195;28;1193;-74
2023/03/05 22:43:08;;;;;;;;;;;17.70;44.90;;;;;;10366824;28;1979;-74
2023/03/05 22:48:04;;;;;;;;;;;17.60;44.90;;;;;;10368199;28;866;-74
2023/03/05 22:52:59;;;;;;;;;;;17.60;45.00;;;;;;10367298;28;949;-74
2023/03/05 22:57:54;;;;;;;;;;;17.60;44.90;;;;;;10368058;28;900;-74
2023/03/05 23:02:50;;;;;;;;;;;17.70;44.80;;;;;;10367521;28;1905;-74
2023/03/05 23:07:45;;;;;;;;;;;17.70;44.90;;;;;;10366883;28;763;-74
2023/03/05 23:12:42;;;;;;;;;;;17.70;44.80;;;;;;10367156;28;983;-74
2023/03/05 23:17:38;;;;;;;;;;;17.70;44.70;;;;;;10366053;28;879;-74
2023/03/05 23:22:33;;;;;;;;;;;17.70;44.70;;;;;;10366389;28;1901;-74
2023/03/05 23:27:28;;;;;;;;;;;17.70;44.80;;;;;;10366985;28;838;-75
2023/03/05 23:32:24;;;;;;;;;;;17.70;44.70;;;;;;10366874;28;823;-75
2023/03/05 23:37:19;;;;;;;;;;;17.70;44.70;;;;;;10374409;28;936;-74
2023/03/05 23:42:15;;;;;;;;;;;17.60;44.60;;;;;;10374126;28;1997;-74
2023/03/05 23:47:10;;;;;;;;;;;17.70;44.60;;;;;;10375769;28;894;-74
2023/03/05 23:52:05;;;;;;;;;;;17.70;44.60;;;;;;10374254;28;791;-74
2023/03/05 23:57:01;;;;;;;;;;;17.70;44.60;;;;;;10374823;28;827;-74
